Airport View

Enter AWOS ICAO identifier for current METAR.

ex. KFNL

KPYM 181052Z AUTO 33007KT 10SM CLR M11/M19 A3057 RMK AO2 SLP355 T11111189

18 Jan 2020 11:42

Frequency: 135.625

Phone: 508-746-8003

Other Area AWOS: KGHG - KTAN - KEWB - KFMH

TAF KFMH 180530Z 1806/1906 33008KT P6SM SKC FM182000 20006KT P6SM VCSH OVC070 FM182200 17008KT 2SM -SN BR OVC020 FM190000 16009KT 1/4SM +SN FZFG OVC015 FM190200 17012G19KT 1/2SM SN FZFG OVC008 FM190300 19012KT 5SM -RA OVC003